El Dorado, KS

8:26 PM CST on February 12, 2016 (GMT -0600)
APRSWXNET | | Change Station
CLOSE
Current Station
Personal Weather Station
Location: El Dorado, KS
Elevation: 1341 ft
Nearby Weather Stations

Elev 1341 ft 37.82 °N, 96.89 °W | Updated 18 minutes ago

Clear
Clear
33 °F
Feels Like 25 °F
N
10
Wind Variable Wind from NNE
Gusts 13.0 mph

Today
High -- | Low -- °F
--% Chance of Precip.
Yesterday
High -- | Low -- °F
Precip. -- in
Pressure 30.53 in
Visibility 10.0 miles
Clouds Mostly Cloudy 12000 ft
Windchill 25 °F
Dew Point 23 °F
Humidity 66%
Rainfall in
Snow Depth Not available.
7:21 AM 6:02 PM
Waxing Crescent, 26% visible
METAR KAAO 130154Z AUTO 02009KT 10SM BKN120 01/M06 A3049 RMK AO2 SLP338 T00111056
Pressure 30.53 in
Visibility 10.0 miles
Clouds Mostly Cloudy 12000 ft
Windchill 25 °F
Dew Point 23 °F
Humidity 66%
Rainfall in
Snow Depth Not available.
7:21 AM 6:02 PM
Waxing Crescent, 26% visible
METAR KAAO 130154Z AUTO 02009KT 10SM BKN120 01/M06 A3049 RMK AO2 SLP338 T00111056

10-Day Weather Forecast

Almanac

Astronomy

Feb. 12, 2016 Rise Set
Actual Time
Civil Twilight
Nautical Twilight
Astronomical Twilight
Moon
Length of Visible Light
Length of Day
Tomorrow will be .
, % of the Moon is Illuminated

Today's Extremes

State Highs State Lows

Community

WunderPhotos

Upload Photos

1,892,464 photos uploaded!

WunderBlog® & News

Nearby

Air Quality

  Air Quality AQ Index Pollutant
Not available.

Snow Depth

Station Depth Elevation

Earthquake Activity

City Distance Mag. Time & Date
Minimum magnitude displayed is 2.5.

Coastal Water Temperatures

Place Temperature

Stations

Nearby Weather Stations

Station Location Temp. Windchill Dew Point Humidity Wind Precip. Elev Updated Type
                   

Watches & Warnings

There are currently no watches in effect.